Terminal Aerodrome Forecast
Issued by NWS

Home | Current Version | Previous Version | Text Only | Print | Product List | Glossary On
Versions: 1 2 3 4 5 6 7 8 9 10 11 12 13 14
000
FTAK31 PANC 050534
TAFAGK
TAF
PAGK 050534Z 0506/0606 36005KT P6SM SKC
     FM051200 VRB05KT P6SM VCFG SCT005
     FM052200 VRB03KT P6SM SCT005=

USA.gov is the U.S. government's official web portal to all federal, state and local government web resources and services.